Time;durP1;ratioP1;P1;durP2;ratioP2;P2;SDS_P1;SDS_P2;PMS_P1;PMS_P2;Temp;Humidity;BMP_temperature;BMP_pressure;BME280_temperature;BME280_humidity;BME280_pressure;Samples;Min_cycle;Max_cycle;Signal;HPM_P1;HPM_P2
2023/02/05 00:02:24;;;;;;;9.88;3.70;;;;;;;-2.64;100.00;102953.16;5007972;28;20052;-72
2023/02/05 00:04:49;;;;;;;5.80;3.30;;;;;;;-2.66;100.00;102960.16;5008245;28;20042;-72
2023/02/05 00:07:14;;;;;;;;;;;;;;;-2.66;100.00;102952.31;5008247;28;20076;-74
2023/02/05 00:09:40;;;;;;;7.93;2.80;;;;;;;-2.72;100.00;102961.09;5026073;28;20427;-74
2023/02/05 00:12:06;;;;;;;9.55;4.07;;;;;;;-2.77;100.00;102955.09;5007825;28;20037;-71
2023/02/05 00:14:32;;;;;;;5.00;2.60;;;;;;;-2.78;100.00;102959.47;4996521;28;21035;-71
2023/02/05 00:16:57;;;;;;;7.82;3.08;;;;;;;-2.73;100.00;102963.75;5025743;28;20120;-72
2023/02/05 00:19:23;;;;;;;2.75;2.08;;;;;;;-2.73;100.00;102955.91;5025599;28;20037;-72
2023/02/05 00:21:48;;;;;;;7.88;3.10;;;;;;;-2.76;100.00;102949.84;5025514;28;20041;-72
2023/02/05 00:24:13;;;;;;;6.88;2.88;;;;;;;-2.79;100.00;102935.94;5008242;28;20059;-71
2023/02/05 00:26:40;;;;;;;10.52;3.03;;;;;;;-2.78;100.00;102945.53;5025287;28;20080;-71
2023/02/05 00:29:05;;;;;;;7.05;3.08;;;;;;;-2.81;100.00;102941.22;5007636;28;20038;-71
2023/02/05 00:31:30;;;;;;;11.40;3.10;;;;;;;-2.81;100.00;102937.72;5007611;28;20404;-72
2023/02/05 00:33:56;;;;;;;5.82;3.33;;;;;;;-2.82;100.00;102933.38;5007773;28;20504;-71
2023/02/05 00:36:22;;;;;;;5.53;3.20;;;;;;;-2.82;100.00;102933.38;5007205;28;20407;-72
2023/02/05 00:38:48;;;;;;;;;;;;;;;-2.72;100.00;102940.19;5024730;28;20565;-72
2023/02/05 00:41:14;;;;;;;7.15;2.72;;;;;;;-2.82;100.00;102929.00;5023650;28;19995;-71
2023/02/05 00:43:40;;;;;;;5.15;3.28;;;;;;;-2.78;100.00;102935.06;5015866;23;20068;-72
2023/02/05 00:46:06;;;;;;;8.25;3.30;;;;;;;-2.80;100.00;102931.59;5024995;28;20072;-72
2023/02/05 00:48:31;;;;;;;9.23;2.88;;;;;;;-2.87;100.00;102935.22;5025212;28;20033;-70
2023/02/05 00:50:57;;;;;;;7.63;3.70;;;;;;;-2.92;100.00;102926.56;5007280;28;20521;-70
2023/02/05 00:53:23;;;;;;;;;;;;;;;-2.94;100.00;102923.13;5003328;28;20041;-72
2023/02/05 00:55:48;;;;;;;6.88;2.85;;;;;;;-2.91;100.00;102916.06;4984184;28;20416;-72
2023/02/05 00:58:14;;;;;;;;;;;;;;;-2.95;100.00;102905.69;4987802;28;20041;-72
2023/02/05 01:00:40;;;;;;;;;;;;;;;-2.97;100.00;102914.44;4972508;28;19913;-73
2023/02/05 01:03:05;;;;;;;3.20;2.05;;;;;;;-2.92;100.00;102924.81;5002987;28;20578;-76
2023/02/05 01:05:33;;;;;;;6.10;3.30;;;;;;;-2.92;100.00;102927.44;5000555;28;20037;-75
2023/02/05 01:07:58;;;;;;;8.75;2.70;;;;;;;-2.96;100.00;102925.72;4998686;28;20038;-74
2023/02/05 01:10:24;;;;;;;5.65;2.78;;;;;;;-2.85;100.00;102936.91;4987149;28;20034;-73
2023/02/05 01:12:49;;;;;;;7.07;3.03;;;;;;;-2.93;100.00;102909.16;5000458;28;20471;-73
2023/02/05 01:15:15;;;;;;;;;;;;;;;-2.92;100.00;102905.66;5003194;28;20050;-72
2023/02/05 01:17:40;;;;;;;;;;;;;;;-2.95;100.00;102895.22;5000817;28;19917;-72
2023/02/05 01:20:07;;;;;;;5.93;2.65;;;;;;;-3.00;100.00;102885.72;5003959;28;19917;-73
2023/02/05 01:22:32;;;;;;;7.13;3.70;;;;;;;-2.94;100.00;102899.59;4999805;28;20108;-71
2023/02/05 01:24:57;;;;;;;8.60;3.05;;;;;;;-3.00;100.00;102882.22;5001443;28;20030;-73
2023/02/05 01:27:23;;;;;;;8.20;2.60;;;;;;;-2.96;100.00;102894.38;4987340;28;20038;-73
2023/02/05 01:29:49;;;;;;;8.40;2.90;;;;;;;-2.95;100.00;102895.22;5000483;28;20042;-76
2023/02/05 01:32:15;;;;;;;13.02;3.38;;;;;;;-2.94;100.00;102887.38;5001197;28;20046;-74
2023/02/05 01:34:40;;;;;;;5.20;2.92;;;;;;;-2.90;100.00;102891.69;4983946;28;20036;-75
2023/02/05 01:37:06;;;;;;;3.15;2.35;;;;;;;-2.90;100.00;102873.38;4971262;28;20518;-75
2023/02/05 01:39:31;;;;;;;8.20;2.65;;;;;;;-2.91;100.00;102861.19;4983896;28;20034;-72
2023/02/05 01:41:56;;;;;;;7.97;2.80;;;;;;;-2.92;100.00;102848.16;4971242;28;20037;-72
2023/02/05 01:44:25;;;;;;;;;;;;;;;-2.95;100.00;102829.88;5001453;28;20045;-74
2023/02/05 01:46:52;;;;;;;3.45;1.88;;;;;;;-2.93;100.00;102828.97;4984211;28;19921;-75
2023/02/05 01:49:31;;;;;;;5.80;2.92;;;;;;;-2.92;100.00;102832.47;4986210;28;20026;-73
2023/02/05 01:52:01;;;;;;;4.25;2.75;;;;;;;-2.93;100.00;102828.09;5004841;28;20045;-70
2023/02/05 01:54:30;;;;;;;4.68;2.47;;;;;;;-2.90;100.00;102822.81;5004395;28;20494;-69
2023/02/05 01:57:18;;;;;;;4.88;2.33;;;;;;;-2.87;100.00;102825.41;5005701;28;20128;-72
2023/02/05 01:59:44;;;;;;;4.03;1.92;;;;;;;-2.92;100.00;102801.09;5004421;28;20129;-72
2023/02/05 02:02:10;;;;;;;6.05;2.58;;;;;;;-2.93;100.00;102791.50;5004740;28;20065;-73
2023/02/05 02:04:40;;;;;;;6.00;2.63;;;;;;;-2.95;100.00;102780.22;4987000;28;20057;-72
2023/02/05 02:07:09;;;;;;;8.23;2.30;;;;;;;-2.87;100.00;102800.13;4990308;28;20030;-71
2023/02/05 02:09:35;;;;;;;4.35;2.15;;;;;;;-2.90;100.00;102789.72;4987579;28;20088;-73
2023/02/05 02:12:01;;;;;;;3.55;2.05;;;;;;;-2.87;100.00;102794.03;5004720;28;20487;-73
2023/02/05 02:14:28;;;;;;;;;;;;;;;-2.91;100.00;102792.34;4988220;28;20478;-70
2023/02/05 02:16:54;;;;;;;6.03;2.05;;;;;;;-2.93;100.00;102789.75;4980431;28;19913;-71
2023/02/05 02:19:33;;;;;;;8.70;2.35;;;;;;;-2.92;100.00;102786.28;5004614;28;20041;-72
2023/02/05 02:22:32;;;;;;;3.88;1.83;;;;;;;-2.89;100.00;102795.81;5000184;28;20042;-72
2023/02/05 02:25:10;;;;;;;3.08;1.75;;;;;;;-2.80;100.00;102806.97;5005392;28;20038;-72
2023/02/05 02:27:41;;;;;;;6.30;1.98;;;;;;;-2.81;100.00;102786.97;5002142;28;20029;-73
2023/02/05 02:30:23;;;;;;;5.18;2.45;;;;;;;-2.91;100.00;102761.84;5000947;28;20467;-70
2023/02/05 02:32:57;;;;;;;3.67;2.80;;;;;;;-2.97;100.00;102757.59;5013237;28;20078;-72
2023/02/05 02:35:41;;;;;;;4.00;2.22;;;;;;;-2.90;100.00;102750.50;5003728;28;20038;-72
2023/02/05 02:38:11;;;;;;;3.83;2.07;;;;;;;-2.91;100.00;102740.06;5001391;28;20143;-73
2023/02/05 02:40:44;;;;;;;5.32;2.00;;;;;;;-2.95;100.00;102735.78;4986511;28;20324;-70
2023/02/05 02:43:16;;;;;;;3.33;2.05;;;;;;;-2.90;100.00;102744.41;5003897;28;20038;-71
2023/02/05 02:45:50;;;;;;;8.38;2.10;;;;;;;-2.88;100.00;102747.84;5002644;28;20498;-71
2023/02/05 02:48:18;;;;;;;4.75;2.20;;;;;;;-2.85;100.00;102735.59;4989969;28;20038;-73
2023/02/05 02:50:48;;;;;;;12.02;2.60;;;;;;;-2.84;100.00;102719.03;4974390;28;20037;-73
2023/02/05 02:53:18;;;;;;;5.43;2.50;;;;;;;-2.88;100.00;102693.84;4989930;28;20116;-72
2023/02/05 02:55:46;;;;;;;4.68;2.05;;;;;;;-2.84;100.00;102699.88;5002448;28;20134;-72
2023/02/05 02:58:26;;;;;;;4.35;2.00;;;;;;;-2.81;100.00;102694.56;4973725;28;20032;-70
2023/02/05 03:00:53;;;;;;;8.20;2.38;;;;;;;-2.82;100.00;102688.47;5002817;28;20033;-73
2023/02/05 03:03:23;;;;;;;8.57;2.00;;;;;;;-2.75;100.00;102686.63;4989746;28;20052;-72
2023/02/05 03:05:49;;;;;;;3.40;1.88;;;;;;;-2.69;100.00;102693.47;5002351;28;20033;-73
2023/02/05 03:08:27;;;;;;;2.55;1.50;;;;;;;-2.68;100.00;102662.06;4987620;28;20080;-71
2023/02/05 03:11:05;;;;;;;4.82;2.20;;;;;;;-2.69;100.00;102662.09;5002765;28;20029;-72
2023/02/05 03:13:31;;;;;;;4.32;1.98;;;;;;;-2.80;100.00;102631.81;4970002;28;20128;-75
2023/02/05 03:15:59;;;;;;;3.75;1.77;;;;;;;-2.69;100.00;102636.84;4975041;28;20083;-73
2023/02/05 03:18:25;;;;;;;5.40;2.35;;;;;;;-2.63;100.00;102636.69;4989217;28;20038;-73
2023/02/05 03:20:57;;;;;;;8.25;3.00;;;;;;;-2.48;100.00;102639.88;4986168;28;20408;-72
2023/02/05 03:23:25;;;;;;;3.33;1.90;;;;;;;-2.59;100.00;102599.13;4972881;28;20033;-72
2023/02/05 03:25:50;;;;;;;4.10;1.55;;;;;;;-2.56;100.00;102579.91;5003587;28;20029;-73
2023/02/05 03:28:21;;;;;;;4.00;1.65;;;;;;;-2.62;100.00;102564.34;4989958;28;20026;-73
2023/02/05 03:30:56;;;;;;;4.38;1.90;;;;;;;-2.59;100.00;102565.13;4985545;28;20038;-70
2023/02/05 03:33:51;;;;;;;6.13;2.00;;;;;;;-2.72;100.00;102521.81;5003204;28;20048;-71
2023/02/05 03:36:41;;;;;;;6.57;2.10;;;;;;;-2.76;100.00;102513.22;5002834;28;20036;-72
2023/02/05 03:39:37;;;;;;;6.15;2.10;;;;;;;-2.59;100.00;102536.38;4984713;28;20026;-70
2023/02/05 03:42:27;;;;;;;3.92;1.67;;;;;;;-2.61;100.00;102517.22;4998153;28;20037;-75
2023/02/05 03:45:00;;;;;;;4.70;2.47;;;;;;;-2.74;100.00;102487.00;5003365;28;20041;-72
2023/02/05 03:47:36;;;;;;;5.60;2.47;;;;;;;-2.71;100.00;102505.25;5000780;28;20037;-72
2023/02/05 03:50:08;;;;;;;2.88;1.73;;;;;;;-2.57;100.00;102515.41;5001489;28;20038;-72
2023/02/05 03:52:40;;;;;;;3.20;1.73;;;;;;;-2.57;100.00;102503.19;4985463;28;20037;-73
2023/02/05 03:55:16;;;;;;;4.40;1.77;;;;;;;-2.69;100.00;102472.09;5002652;28;20034;-73
2023/02/05 03:58:03;;;;;;;6.07;2.53;;;;;;;-2.65;100.00;102473.72;4969502;28;20034;-71
2023/02/05 04:00:31;;;;;;;4.57;1.75;;;;;;;-2.66;100.00;102472.03;4968222;28;20124;-73
2023/02/05 04:02:57;;;;;;;5.78;1.90;;;;;;;-2.61;100.00;102474.53;5002519;28;20510;-72
2023/02/05 04:05:27;;;;;;;3.97;1.60;;;;;;;-2.79;100.00;102436.59;4976398;28;20041;-72
2023/02/05 04:07:54;;;;;;;8.55;1.85;;;;;;;-2.67;100.00;102465.09;5002405;28;20025;-71
2023/02/05 04:10:24;;;;;;;5.38;1.95;;;;;;;-2.70;100.00;102465.13;4985874;28;20100;-72
2023/02/05 04:12:50;;;;;;;;;;;;;;;-2.73;100.00;102465.22;5001591;28;20026;-73
2023/02/05 04:15:16;;;;;;;2.20;1.75;;;;;;;-2.76;100.00;102457.44;4985922;28;20403;-71
2023/02/05 04:17:45;;;;;;;3.05;1.52;;;;;;;-2.70;100.00;102472.97;4984688;28;20471;-72
2023/02/05 04:20:11;;;;;;;2.75;1.30;;;;;;;-2.79;100.00;102462.72;4988669;28;20048;-71
2023/02/05 04:22:36;;;;;;;2.85;1.35;;;;;;;-2.68;100.00;102476.44;4989176;28;20030;-71
2023/02/05 04:25:02;;;;;;;4.80;1.40;;;;;;;-2.59;100.00;102497.13;4971737;28;20026;-70
2023/02/05 04:27:27;;;;;;;6.25;1.50;;;;;;;-2.49;100.00;102487.31;5001244;28;20099;-72
2023/02/05 04:29:56;;;;;;;1.75;1.10;;;;;;;-2.57;100.00;102447.41;5002097;28;20588;-73
2023/02/05 04:32:21;;;;;;;2.08;1.50;;;;;;;-2.50;100.00;102440.28;5003222;28;20034;-70
2023/02/05 04:34:47;;;;;;;3.20;1.77;;;;;;;-2.63;100.00;102395.25;4989262;28;20046;-70
2023/02/05 04:37:12;;;;;;;4.28;1.60;;;;;;;-2.57;100.00;102403.81;5002217;28;20022;-72
2023/02/05 04:39:38;;;;;;;3.67;1.50;;;;;;;-2.61;100.00;102404.78;4984735;28;20038;-72
2023/02/05 04:42:03;;;;;;;5.45;1.75;;;;;;;-2.47;100.00;102427.13;5003159;28;20041;-71
2023/02/05 04:44:29;;;;;;;1.73;1.10;;;;;;;-2.45;100.00;102414.88;5002324;28;20530;-73
2023/02/05 04:46:54;;;;;;;1.88;1.55;;;;;;;-2.52;100.00;102369.72;4985340;28;20025;-72
2023/02/05 04:49:20;;;;;;;4.90;1.52;;;;;;;-2.48;100.00;102373.09;4987374;28;20068;-71
2023/02/05 04:51:45;;;;;;;2.42;1.63;;;;;;;-2.51;100.00;102386.25;5004911;28;20286;-73
2023/02/05 04:54:10;;;;;;;2.28;1.35;;;;;;;-2.55;100.00;102391.56;5005263;28;20046;-76
2023/02/05 04:56:37;;;;;;;7.10;1.65;;;;;;;-2.47;100.00;102406.22;5003381;28;20478;-75
2023/02/05 04:59:02;;;;;;;3.50;1.50;;;;;;;-2.57;100.00;102377.66;5004114;28;20030;-72
2023/02/05 05:01:28;;;;;;;2.55;1.70;;;;;;;-2.48;100.00;102401.84;5002102;28;20048;-71
2023/02/05 05:03:53;;;;;;;3.85;1.67;;;;;;;-2.56;100.00;102376.75;5002648;28;20041;-73
2023/02/05 05:06:18;;;;;;;1.80;1.10;;;;;;;-2.57;100.00;102380.28;4987765;28;20044;-73
2023/02/05 05:08:44;;;;;;;2.10;1.10;;;;;;;-2.52;100.00;102397.63;5001701;28;20117;-71
2023/02/05 05:11:12;;;;;;;11.45;2.10;;;;;;;-2.48;100.00;102394.00;4989687;28;20034;-73
2023/02/05 05:13:38;;;;;;;3.45;1.80;;;;;;;-2.33;100.00;102412.81;5000574;28;20042;-73
2023/02/05 05:16:05;;;;;;;3.50;1.42;;;;;;;-2.57;100.00;102356.75;4987050;28;20049;-73
2023/02/05 05:18:31;;;;;;;5.05;1.50;;;;;;;-2.49;100.00;102381.84;5000757;28;20038;-71
2023/02/05 05:20:57;;;;;;;1.90;1.20;;;;;;;-2.36;100.00;102398.97;4971207;28;20040;-72
2023/02/05 05:23:23;;;;;;;3.40;1.40;;;;;;;-2.51;100.00;102366.19;4988719;28;20502;-72
2023/02/05 05:25:48;;;;;;;1.92;1.30;;;;;;;-2.44;100.00;102385.19;5005546;28;20026;-72
2023/02/05 05:28:15;;;;;;;3.58;1.15;;;;;;;-2.30;100.00;102413.63;4991636;28;20613;-73
2023/02/05 05:30:42;;;;;;;3.22;1.30;;;;;;;-2.40;100.00;102381.63;5005756;28;20057;-72
2023/02/05 05:33:08;;;;;;;2.70;1.30;;;;;;;-2.38;100.00;102398.13;5005688;28;20042;-73
2023/02/05 05:35:33;;;;;;;3.20;1.67;;;;;;;-2.47;100.00;102377.44;4989113;28;20036;-73
2023/02/05 05:38:00;;;;;;;10.25;5.25;;;;;;;-2.42;100.00;102389.50;4979666;28;20026;-72
2023/02/05 05:46:22;;;;;;;2.22;1.50;;;;;;;-2.40;100.00;102394.69;4945822;29;20047;-73
2023/02/05 05:48:55;;;;;;;4.00;1.70;;;;;;;-2.36;100.00;102385.88;4944417;28;20040;-73
2023/02/05 05:51:21;;;;;;;4.63;1.55;;;;;;;-2.30;100.00;102401.41;4955970;28;20140;-73
2023/02/05 05:53:47;;;;;;;2.72;1.92;;;;;;;-2.14;100.00;102420.19;5004116;28;20472;-70
2023/02/05 05:56:13;;;;;;;2.83;1.50;;;;;;;-2.10;100.00;102407.91;4993228;28;20060;-73
2023/02/05 05:58:38;;;;;;;3.85;2.10;;;;;;;-2.09;100.00;102380.81;5006913;28;20093;-73
2023/02/05 06:01:04;;;;;;;3.47;1.60;;;;;;;-2.08;100.00;102359.84;5007228;28;20045;-70
2023/02/05 06:03:30;;;;;;;3.33;1.38;;;;;;;-2.06;100.00;102339.72;4989604;28;20050;-73
2023/02/05 06:05:55;;;;;;;4.18;1.77;;;;;;;-2.08;100.00;102312.72;4989785;28;20080;-72
2023/02/05 06:08:20;;;;;;;3.72;1.55;;;;;;;-2.26;100.00;102277.47;4986064;28;20122;-70
2023/02/05 06:10:46;;;;;;;4.32;1.88;;;;;;;-2.16;100.00;102301.59;5009304;28;20042;-72
2023/02/05 06:13:11;;;;;;;3.33;1.50;;;;;;;-2.16;100.00;102297.22;5008740;28;20040;-73
2023/02/05 06:15:37;;;;;;;3.38;1.25;;;;;;;-2.21;100.00;102293.03;4990220;28;20076;-73
2023/02/05 06:18:02;;;;;;;4.20;1.98;;;;;;;-2.10;100.00;102316.31;4996082;28;20034;-73
2023/02/05 06:20:27;;;;;;;6.15;1.90;;;;;;;-2.15;100.00;102304.19;5004102;28;20053;-75
2023/02/05 06:22:53;;;;;;;2.80;1.65;;;;;;;-2.11;100.00;102307.56;5004932;28;20091;-75
2023/02/05 06:25:18;;;;;;;3.47;1.77;;;;;;;-2.06;100.00;102308.31;5006400;28;20480;-74
2023/02/05 06:27:43;;;;;;;3.33;1.75;;;;;;;-2.16;100.00;102292.00;5004146;28;20027;-75
2023/02/05 06:30:11;;;;;;;5.93;1.73;;;;;;;-2.19;100.00;102301.69;5004999;28;20046;-74
2023/02/05 06:32:36;;;;;;;5.60;2.15;;;;;;;-2.13;100.00;102328.56;4989341;28;20042;-71
2023/02/05 06:35:02;;;;;;;10.15;1.77;;;;;;;-2.02;100.00;102353.56;5004664;28;20040;-76
2023/02/05 06:37:30;;;;;;;1.80;1.13;;;;;;;-2.02;100.00;102341.34;4987653;28;20026;-76
2023/02/05 06:39:55;;;;;;;5.35;1.70;;;;;;;-2.01;100.00;102339.59;5007813;28;20022;-75
2023/02/05 06:42:21;;;;;;;2.55;1.65;;;;;;;-2.16;100.00;102309.47;5005282;28;20064;-75
2023/02/05 06:44:46;;;;;;;3.47;1.70;;;;;;;-2.15;100.00;102321.66;5037055;22;20045;-83
2023/02/05 06:47:11;;;;;;;5.57;1.90;;;;;;;-2.16;100.00;102338.25;4999666;28;20072;-82
2023/02/05 06:49:37;;;;;;;5.25;1.67;;;;;;;-2.28;100.00;102336.81;5034295;28;20038;-81
2023/02/05 06:52:03;;;;;;;2.78;1.83;;;;;;;-2.23;100.00;102357.63;5001354;28;20397;-83
2023/02/05 06:54:29;;;;;;;1.60;1.17;;;;;;;-2.32;100.00;102350.88;5002858;28;20037;-83
2023/02/05 06:56:54;;;;;;;1.90;1.38;;;;;;;-2.26;100.00;102376.03;5019464;28;20052;-82
2023/02/05 06:59:19;;;;;;;2.95;1.63;;;;;;;-2.30;100.00;102369.16;4998660;28;20064;-85
2023/02/05 07:01:45;;;;;;;8.13;1.55;;;;;;;-2.31;100.00;102376.16;4998757;28;20478;-81
2023/02/05 07:04:10;;;;;;;4.32;1.38;;;;;;;-2.26;100.00;102399.56;4998602;28;20036;-85
2023/02/05 07:06:36;;;;;;;2.45;1.90;;;;;;;-2.26;100.00;102403.03;5012877;28;20044;-85
2023/02/05 07:09:01;;;;;;;3.60;1.20;;;;;;;-2.30;100.00;102388.31;5003322;28;20056;-85
2023/02/05 07:11:27;;;;;;;3.88;1.40;;;;;;;-2.35;100.00;102377.13;5018346;28;20061;-85
2023/02/05 07:13:52;;;;;;;2.85;1.40;;;;;;;-2.36;100.00;102384.13;5002795;28;20592;-85
2023/02/05 07:16:18;;;;;;;4.40;1.50;;;;;;;-2.37;100.00;102392.84;4995607;28;20072;-85
2023/02/05 07:18:43;;;;;;;2.45;1.30;;;;;;;-2.33;100.00;102409.34;4996363;28;20060;-79
2023/02/05 07:21:11;;;;;;;3.97;1.60;;;;;;;-2.20;100.00;102451.72;4998545;28;20046;-83
2023/02/05 07:23:36;;;;;;;5.57;2.72;;;;;;;-2.20;100.00;102442.16;5015567;28;20044;-86
2023/02/05 07:26:06;;;;;;;4.07;2.42;;;;;;;-2.09;100.00;102462.78;4995326;28;20034;-82
2023/02/05 07:28:32;;;;;;;6.78;2.10;;;;;;;-2.13;100.00;102446.34;5017978;28;20038;-85
2023/02/05 07:31:04;;;;;;;4.38;1.63;;;;;;;-2.07;100.00;102442.69;5016149;28;20067;-86
2023/02/05 07:33:29;;;;;;;9.73;2.67;;;;;;;-2.10;100.00;102429.69;5018779;28;20386;-85
2023/02/05 07:35:54;;;;;;;4.63;2.22;;;;;;;-2.09;100.00;102425.31;4997247;28;20037;-85
2023/02/05 07:38:20;;;;;;;4.35;2.33;;;;;;;-2.17;100.00;102399.34;4998793;28;20120;-83
2023/02/05 07:40:46;;;;;;;4.68;1.40;;;;;;;-2.06;100.00;102418.25;5011977;28;20208;-85
2023/02/05 07:43:11;;;;;;;3.22;1.80;;;;;;;-1.95;100.00;102423.19;4999000;28;20441;-85
2023/02/05 07:45:36;;;;;;;4.80;2.45;;;;;;;-1.84;100.00;102436.84;5012165;28;20040;-85
2023/02/05 07:48:02;;;;;;;3.72;1.88;;;;;;;-1.87;100.00;102395.03;4996851;28;20079;-85
2023/02/05 07:50:27;;;;;;;3.05;1.75;;;;;;;-2.03;100.00;102351.88;4998017;28;20030;-85
2023/02/05 07:52:52;;;;;;;2.80;1.48;;;;;;;-2.00;100.00;102355.25;4996957;28;20045;-85
2023/02/05 07:55:18;;;;;;;2.80;1.52;;;;;;;-2.10;100.00;102329.38;4997520;28;20497;-84
2023/02/05 07:57:43;;;;;;;3.30;2.03;;;;;;;-1.99;100.00;102359.59;4994912;28;20324;-81
2023/02/05 08:00:09;;;;;;;3.08;1.35;;;;;;;-2.02;100.00;102354.41;5013859;28;20468;-84
2023/02/05 08:02:38;;;;;;;5.40;1.75;;;;;;;-2.01;100.00;102361.38;4997609;28;20041;-85
2023/02/05 08:05:04;;;;;;;3.20;1.80;;;;;;;-1.96;100.00;102362.13;5014098;28;20039;-82
2023/02/05 08:07:29;;;;;;;2.47;1.40;;;;;;;-1.93;100.00;102361.16;5013979;28;20049;-84
2023/02/05 08:09:54;;;;;;;3.60;1.75;;;;;;;-1.91;100.00;102367.22;5013133;28;20041;-81
2023/02/05 08:12:20;;;;;;;3.35;1.50;;;;;;;-1.93;100.00;102355.94;5013986;28;20045;-83
2023/02/05 08:14:45;;;;;;;4.25;2.03;;;;;;;-1.89;100.00;102354.09;4996875;28;20406;-84
2023/02/05 08:17:10;;;;;;;6.03;2.45;;;;;;;-1.87;100.00;102354.88;4997645;28;20410;-85
2023/02/05 08:19:36;;;;;;;3.50;1.80;;;;;;;-1.83;100.00;102354.75;5000071;28;20552;-84
2023/02/05 08:22:01;;;;;;;4.53;1.55;;;;;;;-1.87;100.00;102355.78;5014510;28;20029;-85
2023/02/05 08:24:27;;;;;;;2.80;1.60;;;;;;;-1.76;100.00;102384.25;4997836;28;20068;-86
2023/02/05 08:26:52;;;;;;;4.53;2.20;;;;;;;-1.70;100.00;102390.19;5012004;28;20035;-86
2023/02/05 08:29:17;;;;;;;4.22;1.85;;;;;;;-1.68;100.00;102382.28;5012158;28;20033;-84
2023/02/05 08:31:43;;;;;;;7.65;2.70;;;;;;;-1.63;100.00;102377.78;5014384;28;20045;-85
2023/02/05 08:34:08;;;;;;;9.65;2.97;;;;;;;-1.64;100.00;102365.59;5014188;28;20041;-81
2023/02/05 08:36:34;;;;;;;7.57;1.88;;;;;;;-1.64;100.00;102343.75;4997616;28;20037;-82
2023/02/05 08:38:59;;;;;;;5.07;2.90;;;;;;;-1.54;100.00;102363.56;5014169;28;20029;-85
2023/02/05 08:41:25;;;;;;;4.03;1.88;;;;;;;-1.48;100.00;102358.13;4999628;28;20441;-85
2023/02/05 08:43:50;;;;;;;3.88;2.28;;;;;;;-1.51;100.00;102343.38;4997620;28;20037;-85
2023/02/05 08:46:19;;;;;;;2.83;2.00;;;;;;;-1.46;100.00;102343.22;4998807;28;20052;-84
2023/02/05 08:48:46;;;;;;;6.20;2.55;;;;;;;-1.45;100.00;102334.47;4998492;28;20033;-84
2023/02/05 08:51:13;;;;;;;3.42;2.60;;;;;;;-1.41;100.00;102327.38;4999768;28;20037;-83
2023/02/05 08:53:39;;;;;;;4.65;2.70;;;;;;;-1.22;100.00;102365.19;4998197;28;20080;-85
2023/02/05 08:56:05;;;;;;;;;;;;;;;-1.17;100.00;102344.09;5004834;28;20041;-86
2023/02/05 08:58:31;;;;;;;4.15;2.03;;;;;;;-1.21;100.00;102305.81;4995776;28;19925;-83
2023/02/05 09:01:03;;;;;;;6.63;2.60;;;;;;;-1.24;100.00;102282.28;4996548;28;20547;-85
2023/02/05 09:03:29;;;;;;;5.20;1.92;;;;;;;-1.38;100.00;102251.28;5028002;28;20033;-82
2023/02/05 09:05:56;;;;;;;7.53;1.92;;;;;;;-1.29;100.00;102295.53;5014045;28;20378;-85
2023/02/05 09:08:24;;;;;;;4.55;2.00;;;;;;;-1.14;100.00;102321.28;4997117;28;20052;-84
2023/02/05 09:10:49;;;;;;;5.32;1.70;;;;;;;-1.02;100.00;102309.53;5012656;28;20045;-85
2023/02/05 09:13:14;;;;;;;7.18;2.50;;;;;;;-1.15;100.00;102271.50;5011636;28;20041;-82
2023/02/05 09:15:45;;;;;;;6.75;2.28;;;;;;;-1.18;100.00;102277.72;5004758;28;20124;-85
2023/02/05 09:18:11;;;;;;;4.13;2.00;;;;;;;-1.32;100.00;102243.25;5011735;28;20442;-84
2023/02/05 09:20:45;;;;;;;7.78;4.45;;;;;;;-1.34;100.00;102274.72;4994075;28;20053;-83
2023/02/05 09:23:11;;;;;;;2.92;1.95;;;;;;;-1.34;100.00;102292.22;4995367;28;20037;-85
2023/02/05 09:25:39;;;;;;;9.52;2.42;;;;;;;-1.09;100.00;102363.06;4995052;28;20048;-84
2023/02/05 09:28:08;;;;;;;5.30;2.25;;;;;;;-1.02;100.00;102345.41;5027955;28;20101;-84
2023/02/05 09:30:34;;;;;;;4.05;2.22;;;;;;;-1.22;100.00;102293.59;4994454;28;20026;-82
2023/02/05 09:33:00;;;;;;;7.38;3.03;;;;;;;-1.15;100.00;102316.97;5010723;28;20079;-86
2023/02/05 09:35:25;;;;;;;4.00;2.60;;;;;;;-1.02;100.00;102351.50;5011792;28;20030;-84
2023/02/05 09:37:50;;;;;;;8.05;2.70;;;;;;;-1.13;100.00;102315.13;4993470;28;20037;-85
2023/02/05 09:40:26;;;;;;;6.32;1.77;;;;;;;-0.94;100.00;102346.84;4993636;28;20037;-84
2023/02/05 09:43:25;;;;;;;4.25;2.38;;;;;;;-0.76;100.00;102352.41;5011147;28;20055;-84
2023/02/05 09:46:00;;;;;;;5.32;2.70;;;;;;;-0.80;100.00;102307.06;5010175;28;20113;-85
2023/02/05 09:48:25;;;;;;;3.55;2.85;;;;;;;-0.80;100.00;102293.94;5010192;28;20498;-84
2023/02/05 09:50:51;;;;;;;5.00;2.47;;;;;;;-0.54;100.00;102323.69;5001615;28;20079;-85
2023/02/05 09:53:20;;;;;;;6.13;3.55;;;;;;;-0.24;100.00;102355.91;5009970;28;20037;-86
2023/02/05 09:55:46;;;;;;;5.63;2.83;;;;;;;0.07;100.00;102344.31;4993202;28;20044;-84
2023/02/05 09:58:20;;;;;;;4.40;2.60;;;;;;;0.23;100.00;102257.91;4993355;28;20060;-85
2023/02/05 10:00:48;;;;;;;6.53;2.17;;;;;;;0.32;100.00;102186.63;4992838;28;20038;-85
2023/02/05 10:03:28;;;;;;;8.43;2.80;;;;;;;0.55;100.00;102138.41;5009102;28;20108;-82
2023/02/05 10:06:06;;;;;;;6.30;2.35;;;;;;;0.63;100.00;102060.06;5026962;28;20105;-83
2023/02/05 10:08:46;;;;;;;5.90;2.90;;;;;;;0.48;100.00;101982.75;4993830;28;20148;-81
2023/02/05 10:11:23;;;;;;;6.75;3.33;;;;;;;0.15;100.00;101906.28;5014464;28;20590;-85
2023/02/05 10:13:59;;;;;;;4.63;2.40;;;;;;;0.08;100.00;101915.34;5033597;28;20052;-84
2023/02/05 10:16:41;;;;;;;4.13;2.35;;;;;;;0.02;100.00;101936.59;5022669;28;20080;-85
2023/02/05 10:19:20;;;;;;;3.05;1.80;;;;;;;0.24;100.00;102003.06;5005490;28;20055;-84
2023/02/05 10:21:45;;;;;;;5.55;2.72;;;;;;;0.21;100.00;101963.78;5021128;28;20033;-86
2023/02/05 10:24:36;;;;;;;7.85;2.58;;;;;;;0.41;100.00;101976.06;5006921;28;20031;-86
2023/02/05 10:27:12;;;;;;;3.40;2.10;;;;;;;0.25;100.00;101911.97;4997508;28;20033;-86
2023/02/05 10:29:54;;;;;;;4.40;2.53;;;;;;;0.21;100.00;101900.75;5023129;28;20294;-83
2023/02/05 10:32:22;;;;;;;9.15;2.75;;;;;;;0.56;100.00;101951.75;5005156;28;20085;-86
2023/02/05 10:35:02;;;;;;;7.18;2.53;;;;;;;0.05;100.00;101799.91;5022075;28;20087;-84
2023/02/05 10:37:38;;;;;;;5.55;2.53;;;;;;;0.23;100.00;101929.56;5006272;28;20033;-83
2023/02/05 10:40:11;;;;;;;4.43;2.83;;;;;;;0.08;100.00;101952.97;5021010;28;20674;-83
2023/02/05 10:42:44;;;;;;;5.43;2.80;;;;;;;0.06;100.00;101980.19;5005523;28;20045;-85
2023/02/05 10:45:24;;;;;;;6.90;3.70;;;;;;;0.07;100.00;102031.78;5021067;28;20049;-84
2023/02/05 10:48:07;;;;;;;4.78;2.60;;;;;;;0.30;100.00;102089.47;5021486;28;20115;-83
2023/02/05 10:51:00;;;;;;;5.55;2.55;;;;;;;0.35;100.00;102027.13;5001950;28;20041;-85
2023/02/05 10:53:28;;;;;;;4.75;2.30;;;;;;;0.38;100.00;102003.31;5003998;28;20025;-83
2023/02/05 10:55:54;;;;;;;3.50;1.98;;;;;;;0.15;100.00;101895.78;5020263;28;20025;-83
2023/02/05 10:58:52;;;;;;;6.45;2.63;;;;;;;0.24;100.00;101955.78;5021378;28;20092;-86
2023/02/05 11:01:25;;;;;;;9.10;3.90;;;;;;;0.31;100.00;101973.00;5026101;23;20144;-75
2023/02/05 11:04:15;;;;;;;8.45;4.05;;;;;;;0.42;100.00;101998.78;4995847;28;20041;-77
2023/02/05 11:06:44;;;;;;;10.20;5.10;;;;;;;0.40;100.00;101984.88;5005279;28;20056;-77
2023/02/05 11:09:29;;;;;;;8.25;4.18;;;;;;;0.21;100.00;101929.63;5015922;28;20040;-75
2023/02/05 11:12:00;;;;;;;8.40;3.92;;;;;;;0.34;100.00;101999.13;5007844;28;20486;-77
2023/02/05 11:14:34;;;;;;;5.90;3.15;;;;;;;0.39;100.00;101999.75;5025235;28;20045;-76
2023/02/05 11:17:06;;;;;;;6.32;3.15;;;;;;;0.17;100.00;101928.09;4995762;28;20120;-75
2023/02/05 11:19:32;;;;;;;8.05;4.15;;;;;;;0.32;100.00;102011.47;5020826;28;20041;-76
2023/02/05 11:22:01;;;;;;;;;;;;;;;0.56;100.00;102054.25;4989335;28;20320;-75
2023/02/05 11:24:34;;;;;;;5.70;3.28;;;;;;;0.56;100.00;102043.75;5006382;28;19917;-76
2023/02/05 11:27:25;;;;;;;7.13;4.57;;;;;;;0.55;100.00;102044.63;4999935;28;20039;-77
2023/02/05 11:29:55;;;;;;;7.03;4.30;;;;;;;0.34;100.00;101998.28;5007175;28;20044;-78
2023/02/05 11:32:31;;;;;;;13.23;3.97;;;;;;;0.36;100.00;102067.38;5007362;28;20699;-76
2023/02/05 11:35:16;;;;;;;;;;;;;;;0.51;100.00;102118.41;5018549;28;20041;-77
2023/02/05 11:37:42;;;;;;;7.80;3.40;;;;;;;0.50;100.00;102070.25;4990305;28;19924;-78